sensor_id;sensor_type;location;lat;lon;timestamp;temperature;humidity
59128;DHT22;44912;52.754;5.994;2022-10-17T00:01:54;12.50;99.90
59128;DHT22;44912;52.754;5.994;2022-10-17T00:04:20;12.40;99.90
59128;DHT22;44912;52.754;5.994;2022-10-17T00:06:45;12.50;99.90
59128;DHT22;44912;52.754;5.994;2022-10-17T00:09:11;12.50;99.90
59128;DHT22;44912;52.754;5.994;2022-10-17T00:11:36;12.50;99.90
59128;DHT22;44912;52.754;5.994;2022-10-17T00:14:02;12.50;99.90
59128;DHT22;44912;52.754;5.994;2022-10-17T00:16:30;12.50;99.90
59128;DHT22;44912;52.754;5.994;2022-10-17T00:18:57;12.50;99.90
59128;DHT22;44912;52.754;5.994;2022-10-17T00:21:23;12.60;99.90
59128;DHT22;44912;52.754;5.994;2022-10-17T00:23:51;12.60;99.90
59128;DHT22;44912;52.754;5.994;2022-10-17T00:26:17;12.60;99.90
59128;DHT22;44912;52.754;5.994;2022-10-17T00:28:48;12.60;99.90
59128;DHT22;44912;52.754;5.994;2022-10-17T00:31:14;12.60;99.90
59128;DHT22;44912;52.754;5.994;2022-10-17T00:33:40;12.60;99.90
59128;DHT22;44912;52.754;5.994;2022-10-17T00:36:19;12.70;99.90
59128;DHT22;44912;52.754;5.994;2022-10-17T00:38:46;12.70;99.90
59128;DHT22;44912;52.754;5.994;2022-10-17T00:41:14;12.70;99.90
59128;DHT22;44912;52.754;5.994;2022-10-17T00:46:25;12.70;99.90
59128;DHT22;44912;52.754;5.994;2022-10-17T00:48:53;12.70;99.90
59128;DHT22;44912;52.754;5.994;2022-10-17T00:51:22;12.80;99.90
59128;DHT22;44912;52.754;5.994;2022-10-17T00:53:49;12.80;99.90
59128;DHT22;44912;52.754;5.994;2022-10-17T00:56:18;12.80;99.90
59128;DHT22;44912;52.754;5.994;2022-10-17T00:58:44;12.80;99.90
59128;DHT22;44912;52.754;5.994;2022-10-17T01:01:09;12.80;99.90
59128;DHT22;44912;52.754;5.994;2022-10-17T01:03:35;12.80;99.90
59128;DHT22;44912;52.754;5.994;2022-10-17T01:06:00;12.70;99.90
59128;DHT22;44912;52.754;5.994;2022-10-17T01:08:26;12.70;99.90
59128;DHT22;44912;52.754;5.994;2022-10-17T01:11:26;12.70;99.90
59128;DHT22;44912;52.754;5.994;2022-10-17T01:17:10;12.70;99.90
59128;DHT22;44912;52.754;5.994;2022-10-17T01:20:04;12.70;99.90
59128;DHT22;44912;52.754;5.994;2022-10-17T01:22:50;12.70;99.90
59128;DHT22;44912;52.754;5.994;2022-10-17T01:25:37;12.70;99.90
59128;DHT22;44912;52.754;5.994;2022-10-17T01:31:16;12.70;99.90
59128;DHT22;44912;52.754;5.994;2022-10-17T01:33:57;12.60;99.90
59128;DHT22;44912;52.754;5.994;2022-10-17T01:44:54;12.60;99.90
59128;DHT22;44912;52.754;5.994;2022-10-17T01:47:25;12.60;99.90
59128;DHT22;44912;52.754;5.994;2022-10-17T01:49:54;12.70;99.90
59128;DHT22;44912;52.754;5.994;2022-10-17T01:52:27;12.60;99.90
59128;DHT22;44912;52.754;5.994;2022-10-17T01:55:14;12.70;99.90
59128;DHT22;44912;52.754;5.994;2022-10-17T01:57:49;12.70;99.90
59128;DHT22;44912;52.754;5.994;2022-10-17T02:00:21;12.70;99.90
59128;DHT22;44912;52.754;5.994;2022-10-17T02:02:48;12.70;99.90
59128;DHT22;44912;52.754;5.994;2022-10-17T02:05:18;12.70;99.90
59128;DHT22;44912;52.754;5.994;2022-10-17T02:07:45;12.70;99.90
59128;DHT22;44912;52.754;5.994;2022-10-17T02:10:20;12.70;99.90
59128;DHT22;44912;52.754;5.994;2022-10-17T02:13:05;12.70;99.90
59128;DHT22;44912;52.754;5.994;2022-10-17T02:18:35;12.70;99.90
59128;DHT22;44912;52.754;5.994;2022-10-17T02:21:07;12.80;99.90
59128;DHT22;44912;52.754;5.994;2022-10-17T02:26:37;12.80;99.90
59128;DHT22;44912;52.754;5.994;2022-10-17T02:29:09;12.90;99.90
59128;DHT22;44912;52.754;5.994;2022-10-17T02:31:48;12.90;99.90
59128;DHT22;44912;52.754;5.994;2022-10-17T02:34:26;12.90;99.90
59128;DHT22;44912;52.754;5.994;2022-10-17T02:36:58;13.00;99.90
59128;DHT22;44912;52.754;5.994;2022-10-17T02:39:26;13.00;99.90
59128;DHT22;44912;52.754;5.994;2022-10-17T02:41:54;13.00;99.90
59128;DHT22;44912;52.754;5.994;2022-10-17T02:44:21;13.10;99.90
59128;DHT22;44912;52.754;5.994;2022-10-17T02:46:52;13.10;99.90
59128;DHT22;44912;52.754;5.994;2022-10-17T02:49:27;13.20;99.90
59128;DHT22;44912;52.754;5.994;2022-10-17T02:54:51;13.30;99.90
59128;DHT22;44912;52.754;5.994;2022-10-17T02:57:24;13.30;99.90
59128;DHT22;44912;52.754;5.994;2022-10-17T02:59:52;13.30;99.90
59128;DHT22;44912;52.754;5.994;2022-10-17T03:02:18;13.30;99.90
59128;DHT22;44912;52.754;5.994;2022-10-17T03:04:45;13.40;99.90
59128;DHT22;44912;52.754;5.994;2022-10-17T03:07:10;13.40;99.90
59128;DHT22;44912;52.754;5.994;2022-10-17T03:09:36;13.40;99.90
59128;DHT22;44912;52.754;5.994;2022-10-17T03:12:02;13.40;99.90
59128;DHT22;44912;52.754;5.994;2022-10-17T03:14:28;13.40;99.90
59128;DHT22;44912;52.754;5.994;2022-10-17T03:16:53;13.40;99.90
59128;DHT22;44912;52.754;5.994;2022-10-17T03:19:19;13.50;99.90
59128;DHT22;44912;52.754;5.994;2022-10-17T03:21:44;13.50;99.90
59128;DHT22;44912;52.754;5.994;2022-10-17T03:24:10;13.50;99.90
59128;DHT22;44912;52.754;5.994;2022-10-17T03:26:35;13.50;99.90
59128;DHT22;44912;52.754;5.994;2022-10-17T03:29:01;13.50;99.90
59128;DHT22;44912;52.754;5.994;2022-10-17T03:31:26;13.60;99.90
59128;DHT22;44912;52.754;5.994;2022-10-17T03:33:52;13.60;99.90
59128;DHT22;44912;52.754;5.994;2022-10-17T03:36:18;13.70;99.90
59128;DHT22;44912;52.754;5.994;2022-10-17T03:38:44;13.70;99.90
59128;DHT22;44912;52.754;5.994;2022-10-17T03:41:10;13.70;99.90
59128;DHT22;44912;52.754;5.994;2022-10-17T03:43:35;13.80;99.90
59128;DHT22;44912;52.754;5.994;2022-10-17T03:46:01;13.80;99.90
59128;DHT22;44912;52.754;5.994;2022-10-17T03:48:28;13.80;99.90
59128;DHT22;44912;52.754;5.994;2022-10-17T03:51:03;13.80;99.90
59128;DHT22;44912;52.754;5.994;2022-10-17T03:53:29;13.90;99.90
59128;DHT22;44912;52.754;5.994;2022-10-17T03:55:56;13.90;99.90
59128;DHT22;44912;52.754;5.994;2022-10-17T03:58:21;13.80;99.90
59128;DHT22;44912;52.754;5.994;2022-10-17T04:00:47;13.90;99.90
59128;DHT22;44912;52.754;5.994;2022-10-17T04:03:12;13.80;99.90
59128;DHT22;44912;52.754;5.994;2022-10-17T04:05:38;13.90;99.90
59128;DHT22;44912;52.754;5.994;2022-10-17T04:08:04;13.90;99.90
59128;DHT22;44912;52.754;5.994;2022-10-17T04:10:29;13.90;99.90
59128;DHT22;44912;52.754;5.994;2022-10-17T04:12:55;13.90;99.90
59128;DHT22;44912;52.754;5.994;2022-10-17T04:15:20;13.90;99.90
59128;DHT22;44912;52.754;5.994;2022-10-17T04:17:46;13.90;99.90
59128;DHT22;44912;52.754;5.994;2022-10-17T04:20:12;14.00;99.90
59128;DHT22;44912;52.754;5.994;2022-10-17T04:22:37;14.00;99.90
59128;DHT22;44912;52.754;5.994;2022-10-17T04:25:03;14.00;99.90
59128;DHT22;44912;52.754;5.994;2022-10-17T04:27:28;14.00;99.90
59128;DHT22;44912;52.754;5.994;2022-10-17T04:29:54;14.10;99.90
59128;DHT22;44912;52.754;5.994;2022-10-17T04:32:20;14.00;99.90
59128;DHT22;44912;52.754;5.994;2022-10-17T04:34:48;14.10;99.90
59128;DHT22;44912;52.754;5.994;2022-10-17T04:37:14;14.10;99.90
59128;DHT22;44912;52.754;5.994;2022-10-17T04:39:40;14.10;99.90
59128;DHT22;44912;52.754;5.994;2022-10-17T04:42:06;14.10;99.90
59128;DHT22;44912;52.754;5.994;2022-10-17T04:44:31;14.10;99.90
59128;DHT22;44912;52.754;5.994;2022-10-17T04:46:58;14.10;99.90
59128;DHT22;44912;52.754;5.994;2022-10-17T04:49:24;14.10;99.90
59128;DHT22;44912;52.754;5.994;2022-10-17T04:51:49;14.10;99.90
59128;DHT22;44912;52.754;5.994;2022-10-17T04:54:15;14.10;99.90
59128;DHT22;44912;52.754;5.994;2022-10-17T04:56:40;14.20;99.90
59128;DHT22;44912;52.754;5.994;2022-10-17T04:59:06;14.20;99.90
59128;DHT22;44912;52.754;5.994;2022-10-17T05:01:31;14.20;99.90
59128;DHT22;44912;52.754;5.994;2022-10-17T05:03:57;14.20;99.90
59128;DHT22;44912;52.754;5.994;2022-10-17T05:06:24;14.30;99.90
59128;DHT22;44912;52.754;5.994;2022-10-17T05:08:52;14.30;99.90
59128;DHT22;44912;52.754;5.994;2022-10-17T05:11:20;14.30;99.90
59128;DHT22;44912;52.754;5.994;2022-10-17T05:13:59;14.40;99.90
59128;DHT22;44912;52.754;5.994;2022-10-17T05:16:25;14.40;99.90
59128;DHT22;44912;52.754;5.994;2022-10-17T05:18:53;14.40;99.90
59128;DHT22;44912;52.754;5.994;2022-10-17T05:21:21;14.40;99.90
59128;DHT22;44912;52.754;5.994;2022-10-17T05:23:47;14.40;99.90
59128;DHT22;44912;52.754;5.994;2022-10-17T05:26:13;14.40;99.90
59128;DHT22;44912;52.754;5.994;2022-10-17T05:28:38;14.40;99.90
59128;DHT22;44912;52.754;5.994;2022-10-17T05:31:05;14.50;99.90
59128;DHT22;44912;52.754;5.994;2022-10-17T05:33:31;14.50;99.90
59128;DHT22;44912;52.754;5.994;2022-10-17T05:35:57;14.50;99.90
59128;DHT22;44912;52.754;5.994;2022-10-17T05:38:23;14.50;99.90
59128;DHT22;44912;52.754;5.994;2022-10-17T05:40:49;14.50;99.90
59128;DHT22;44912;52.754;5.994;2022-10-17T05:43:14;14.50;99.90
59128;DHT22;44912;52.754;5.994;2022-10-17T05:45:40;14.60;99.90
59128;DHT22;44912;52.754;5.994;2022-10-17T05:48:06;14.60;99.90
59128;DHT22;44912;52.754;5.994;2022-10-17T05:50:33;14.60;99.90
59128;DHT22;44912;52.754;5.994;2022-10-17T05:52:59;14.60;99.90
59128;DHT22;44912;52.754;5.994;2022-10-17T05:55:25;14.60;99.90
59128;DHT22;44912;52.754;5.994;2022-10-17T05:57:51;14.70;99.90
59128;DHT22;44912;52.754;5.994;2022-10-17T06:00:19;14.70;99.90
59128;DHT22;44912;52.754;5.994;2022-10-17T06:02:44;14.70;99.90
59128;DHT22;44912;52.754;5.994;2022-10-17T06:05:10;14.70;99.90
59128;DHT22;44912;52.754;5.994;2022-10-17T06:07:36;14.70;99.90
59128;DHT22;44912;52.754;5.994;2022-10-17T06:10:02;14.70;99.90
59128;DHT22;44912;52.754;5.994;2022-10-17T06:12:27;14.80;99.90
59128;DHT22;44912;52.754;5.994;2022-10-17T06:14:53;14.70;99.90
59128;DHT22;44912;52.754;5.994;2022-10-17T06:17:18;14.80;99.90
59128;DHT22;44912;52.754;5.994;2022-10-17T06:19:44;14.80;99.90
59128;DHT22;44912;52.754;5.994;2022-10-17T06:22:09;14.80;99.90
59128;DHT22;44912;52.754;5.994;2022-10-17T06:24:35;14.80;99.90
59128;DHT22;44912;52.754;5.994;2022-10-17T06:27:01;14.90;99.90
59128;DHT22;44912;52.754;5.994;2022-10-17T06:29:26;14.90;99.90
59128;DHT22;44912;52.754;5.994;2022-10-17T06:31:52;14.90;99.90
59128;DHT22;44912;52.754;5.994;2022-10-17T06:34:18;14.90;99.90
59128;DHT22;44912;52.754;5.994;2022-10-17T06:36:44;14.90;99.90
59128;DHT22;44912;52.754;5.994;2022-10-17T06:39:09;14.90;99.90
59128;DHT22;44912;52.754;5.994;2022-10-17T06:41:35;15.00;99.90
59128;DHT22;44912;52.754;5.994;2022-10-17T06:44:00;15.00;99.90
59128;DHT22;44912;52.754;5.994;2022-10-17T06:46:32;15.00;99.90
59128;DHT22;44912;52.754;5.994;2022-10-17T06:48:57;15.00;99.90
59128;DHT22;44912;52.754;5.994;2022-10-17T06:51:23;15.00;99.90
59128;DHT22;44912;52.754;5.994;2022-10-17T06:53:48;15.10;99.90
59128;DHT22;44912;52.754;5.994;2022-10-17T06:56:14;15.10;99.90
59128;DHT22;44912;52.754;5.994;2022-10-17T06:58:39;15.10;99.90
59128;DHT22;44912;52.754;5.994;2022-10-17T07:01:08;15.10;99.90
59128;DHT22;44912;52.754;5.994;2022-10-17T07:03:34;15.10;99.90
59128;DHT22;44912;52.754;5.994;2022-10-17T07:05:59;15.10;99.90
59128;DHT22;44912;52.754;5.994;2022-10-17T07:08:25;15.10;99.90
59128;DHT22;44912;52.754;5.994;2022-10-17T07:10:51;15.10;99.90
59128;DHT22;44912;52.754;5.994;2022-10-17T07:13:17;15.10;99.90
59128;DHT22;44912;52.754;5.994;2022-10-17T07:15:43;15.10;99.90
59128;DHT22;44912;52.754;5.994;2022-10-17T07:18:09;15.10;99.90
59128;DHT22;44912;52.754;5.994;2022-10-17T07:20:35;15.20;99.90
59128;DHT22;44912;52.754;5.994;2022-10-17T07:23:00;15.20;99.90
59128;DHT22;44912;52.754;5.994;2022-10-17T07:25:26;15.30;99.90
59128;DHT22;44912;52.754;5.994;2022-10-17T07:27:52;15.30;99.90
59128;DHT22;44912;52.754;5.994;2022-10-17T07:30:18;15.30;99.90
59128;DHT22;44912;52.754;5.994;2022-10-17T07:32:44;15.40;99.90
59128;DHT22;44912;52.754;5.994;2022-10-17T07:35:10;15.50;99.90
59128;DHT22;44912;52.754;5.994;2022-10-17T07:37:36;15.50;99.90
59128;DHT22;44912;52.754;5.994;2022-10-17T07:40:03;15.50;99.90
59128;DHT22;44912;52.754;5.994;2022-10-17T07:42:28;15.60;99.90
59128;DHT22;44912;52.754;5.994;2022-10-17T07:44:54;15.70;99.90
59128;DHT22;44912;52.754;5.994;2022-10-17T07:47:20;15.70;99.90
59128;DHT22;44912;52.754;5.994;2022-10-17T07:49:45;15.70;99.90
59128;DHT22;44912;52.754;5.994;2022-10-17T07:52:15;15.80;99.90
59128;DHT22;44912;52.754;5.994;2022-10-17T07:54:42;15.90;99.90
59128;DHT22;44912;52.754;5.994;2022-10-17T07:57:08;15.90;99.90
59128;DHT22;44912;52.754;5.994;2022-10-17T07:59:35;15.90;99.90
59128;DHT22;44912;52.754;5.994;2022-10-17T08:02:01;15.90;99.90
59128;DHT22;44912;52.754;5.994;2022-10-17T08:04:27;16.00;99.90
59128;DHT22;44912;52.754;5.994;2022-10-17T08:06:53;16.00;99.90
59128;DHT22;44912;52.754;5.994;2022-10-17T08:09:18;16.00;99.90
59128;DHT22;44912;52.754;5.994;2022-10-17T08:11:44;16.00;99.90
59128;DHT22;44912;52.754;5.994;2022-10-17T08:14:11;16.00;99.90
59128;DHT22;44912;52.754;5.994;2022-10-17T08:16:37;16.00;99.90
59128;DHT22;44912;52.754;5.994;2022-10-17T08:19:03;16.00;99.90
59128;DHT22;44912;52.754;5.994;2022-10-17T08:21:29;16.10;99.90
59128;DHT22;44912;52.754;5.994;2022-10-17T08:23:54;16.10;99.90
59128;DHT22;44912;52.754;5.994;2022-10-17T08:26:20;16.10;99.90
59128;DHT22;44912;52.754;5.994;2022-10-17T08:28:46;16.10;99.90
59128;DHT22;44912;52.754;5.994;2022-10-17T08:31:14;16.10;99.90
59128;DHT22;44912;52.754;5.994;2022-10-17T08:33:41;16.10;99.90
59128;DHT22;44912;52.754;5.994;2022-10-17T08:36:07;16.10;99.90
59128;DHT22;44912;52.754;5.994;2022-10-17T08:38:34;16.10;99.90
59128;DHT22;44912;52.754;5.994;2022-10-17T08:41:04;16.20;99.90
59128;DHT22;44912;52.754;5.994;2022-10-17T08:43:49;16.20;99.90
59128;DHT22;44912;52.754;5.994;2022-10-17T08:46:16;16.30;99.90
59128;DHT22;44912;52.754;5.994;2022-10-17T08:48:44;16.30;99.90
59128;DHT22;44912;52.754;5.994;2022-10-17T08:51:15;16.40;99.90
59128;DHT22;44912;52.754;5.994;2022-10-17T08:54:31;16.40;99.90
59128;DHT22;44912;52.754;5.994;2022-10-17T08:56:59;16.50;99.90
59128;DHT22;44912;52.754;5.994;2022-10-17T08:59:29;16.60;99.90
59128;DHT22;44912;52.754;5.994;2022-10-17T09:02:13;16.70;99.90
59128;DHT22;44912;52.754;5.994;2022-10-17T09:05:14;16.80;99.90
59128;DHT22;44912;52.754;5.994;2022-10-17T09:07:46;16.90;99.90
59128;DHT22;44912;52.754;5.994;2022-10-17T09:10:42;17.00;99.90
59128;DHT22;44912;52.754;5.994;2022-10-17T09:16:22;17.00;99.90
59128;DHT22;44912;52.754;5.994;2022-10-17T09:21:51;17.00;99.90
59128;DHT22;44912;52.754;5.994;2022-10-17T09:29:57;17.00;99.90
59128;DHT22;44912;52.754;5.994;2022-10-17T09:32:26;16.90;99.90
59128;DHT22;44912;52.754;5.994;2022-10-17T09:34:52;16.90;99.90
59128;DHT22;44912;52.754;5.994;2022-10-17T09:37:21;16.90;99.90
59128;DHT22;44912;52.754;5.994;2022-10-17T09:39:49;16.80;99.90
59128;DHT22;44912;52.754;5.994;2022-10-17T09:42:16;16.80;99.90
59128;DHT22;44912;52.754;5.994;2022-10-17T09:45:00;16.70;99.90
59128;DHT22;44912;52.754;5.994;2022-10-17T09:47:39;16.70;99.90
59128;DHT22;44912;52.754;5.994;2022-10-17T09:50:21;16.70;99.90
59128;DHT22;44912;52.754;5.994;2022-10-17T09:52:50;16.70;99.90
59128;DHT22;44912;52.754;5.994;2022-10-17T09:55:31;16.70;99.90
59128;DHT22;44912;52.754;5.994;2022-10-17T09:57:59;16.70;99.90
59128;DHT22;44912;52.754;5.994;2022-10-17T10:00:28;16.70;99.90
59128;DHT22;44912;52.754;5.994;2022-10-17T10:05:39;16.70;99.90
59128;DHT22;44912;52.754;5.994;2022-10-17T10:08:14;16.70;99.90
59128;DHT22;44912;52.754;5.994;2022-10-17T10:10:40;16.70;99.90
59128;DHT22;44912;52.754;5.994;2022-10-17T10:15:47;16.70;99.90
59128;DHT22;44912;52.754;5.994;2022-10-17T10:18:32;16.80;99.90
59128;DHT22;44912;52.754;5.994;2022-10-17T10:21:14;16.80;99.90
59128;DHT22;44912;52.754;5.994;2022-10-17T10:23:44;16.80;99.90
59128;DHT22;44912;52.754;5.994;2022-10-17T10:26:18;16.80;99.90
59128;DHT22;44912;52.754;5.994;2022-10-17T10:28:59;16.80;99.90
59128;DHT22;44912;52.754;5.994;2022-10-17T10:31:44;16.80;99.90
59128;DHT22;44912;52.754;5.994;2022-10-17T10:34:27;16.70;99.90
59128;DHT22;44912;52.754;5.994;2022-10-17T10:37:05;16.70;99.90
59128;DHT22;44912;52.754;5.994;2022-10-17T10:39:48;16.70;99.90
59128;DHT22;44912;52.754;5.994;2022-10-17T10:42:27;16.80;99.90
59128;DHT22;44912;52.754;5.994;2022-10-17T10:44:57;16.70;99.90
59128;DHT22;44912;52.754;5.994;2022-10-17T10:47:26;16.70;99.90
59128;DHT22;44912;52.754;5.994;2022-10-17T10:50:08;16.70;99.90
59128;DHT22;44912;52.754;5.994;2022-10-17T10:52:53;16.70;99.90
59128;DHT22;44912;52.754;5.994;2022-10-17T10:55:31;16.80;99.90
59128;DHT22;44912;52.754;5.994;2022-10-17T10:58:03;16.80;99.90
59128;DHT22;44912;52.754;5.994;2022-10-17T11:00:31;16.80;99.90
59128;DHT22;44912;52.754;5.994;2022-10-17T11:03:07;16.90;99.90
59128;DHT22;44912;52.754;5.994;2022-10-17T11:08:14;16.90;99.90
59128;DHT22;44912;52.754;5.994;2022-10-17T11:10:56;16.90;99.90
59128;DHT22;44912;52.754;5.994;2022-10-17T11:13:26;16.90;99.90
59128;DHT22;44912;52.754;5.994;2022-10-17T11:16:20;16.90;99.90
59128;DHT22;44912;52.754;5.994;2022-10-17T11:18:52;16.90;99.90
59128;DHT22;44912;52.754;5.994;2022-10-17T11:21:32;16.90;99.90
59128;DHT22;44912;52.754;5.994;2022-10-17T11:24:23;16.90;99.90
59128;DHT22;44912;52.754;5.994;2022-10-17T11:27:05;16.90;99.90
59128;DHT22;44912;52.754;5.994;2022-10-17T11:29:34;16.90;99.90
59128;DHT22;44912;52.754;5.994;2022-10-17T11:32:25;16.90;99.90
59128;DHT22;44912;52.754;5.994;2022-10-17T11:35:01;16.90;99.90
59128;DHT22;44912;52.754;5.994;2022-10-17T11:37:33;17.00;99.90
59128;DHT22;44912;52.754;5.994;2022-10-17T11:40:18;17.10;99.90
59128;DHT22;44912;52.754;5.994;2022-10-17T11:43:09;17.00;99.90
59128;DHT22;44912;52.754;5.994;2022-10-17T11:45:41;17.10;99.90
59128;DHT22;44912;52.754;5.994;2022-10-17T11:48:31;17.10;99.90
59128;DHT22;44912;52.754;5.994;2022-10-17T11:51:07;17.10;99.90
59128;DHT22;44912;52.754;5.994;2022-10-17T11:56:47;17.00;99.90
59128;DHT22;44912;52.754;5.994;2022-10-17T11:59:45;17.00;99.90
59128;DHT22;44912;52.754;5.994;2022-10-17T12:06:10;17.00;99.90
59128;DHT22;44912;52.754;5.994;2022-10-17T12:08:12;17.00;99.90
59128;DHT22;44912;52.754;5.994;2022-10-17T12:11:06;17.00;99.90
59128;DHT22;44912;52.754;5.994;2022-10-17T12:18:47;16.90;99.90
59128;DHT22;44912;52.754;5.994;2022-10-17T12:21:13;17.00;99.90
59128;DHT22;44912;52.754;5.994;2022-10-17T12:23:39;16.90;99.90
59128;DHT22;44912;52.754;5.994;2022-10-17T12:26:07;16.80;99.90
59128;DHT22;44912;52.754;5.994;2022-10-17T12:31:09;16.70;99.90
59128;DHT22;44912;52.754;5.994;2022-10-17T12:33:54;16.60;99.90
59128;DHT22;44912;52.754;5.994;2022-10-17T12:46:51;16.00;99.90
59128;DHT22;44912;52.754;5.994;2022-10-17T12:49:23;16.00;99.90
59128;DHT22;44912;52.754;5.994;2022-10-17T12:52:15;15.90;99.90
59128;DHT22;44912;52.754;5.994;2022-10-17T12:54:44;15.80;99.90
59128;DHT22;44912;52.754;5.994;2022-10-17T12:57:30;15.80;99.90
59128;DHT22;44912;52.754;5.994;2022-10-17T12:59:57;15.80;99.90
59128;DHT22;44912;52.754;5.994;2022-10-17T13:02:27;15.70;99.90
59128;DHT22;44912;52.754;5.994;2022-10-17T13:05:03;15.70;99.90
59128;DHT22;44912;52.754;5.994;2022-10-17T13:07:32;15.70;99.90
59128;DHT22;44912;52.754;5.994;2022-10-17T13:09:58;15.70;99.90
59128;DHT22;44912;52.754;5.994;2022-10-17T13:12:30;15.60;99.90
59128;DHT22;44912;52.754;5.994;2022-10-17T13:14:57;15.60;99.90
59128;DHT22;44912;52.754;5.994;2022-10-17T13:17:27;15.60;99.90
59128;DHT22;44912;52.754;5.994;2022-10-17T13:19:55;15.60;99.90
59128;DHT22;44912;52.754;5.994;2022-10-17T13:22:31;15.60;99.90
59128;DHT22;44912;52.754;5.994;2022-10-17T13:25:27;15.60;99.90
59128;DHT22;44912;52.754;5.994;2022-10-17T13:28:02;15.60;99.90
59128;DHT22;44912;52.754;5.994;2022-10-17T13:30:30;15.60;99.90
59128;DHT22;44912;52.754;5.994;2022-10-17T13:32:56;15.50;99.90
59128;DHT22;44912;52.754;5.994;2022-10-17T13:35:29;15.50;99.90
59128;DHT22;44912;52.754;5.994;2022-10-17T13:37:56;15.50;99.90
59128;DHT22;44912;52.754;5.994;2022-10-17T13:40:26;15.50;99.90
59128;DHT22;44912;52.754;5.994;2022-10-17T13:42:53;15.50;99.90
59128;DHT22;44912;52.754;5.994;2022-10-17T13:47:48;15.50;99.90
59128;DHT22;44912;52.754;5.994;2022-10-17T13:50:27;15.50;99.90
59128;DHT22;44912;52.754;5.994;2022-10-17T13:55:31;15.40;99.90
59128;DHT22;44912;52.754;5.994;2022-10-17T13:58:14;15.40;99.90
59128;DHT22;44912;52.754;5.994;2022-10-17T14:00:41;15.50;99.90
59128;DHT22;44912;52.754;5.994;2022-10-17T14:03:07;15.50;99.90
59128;DHT22;44912;52.754;5.994;2022-10-17T14:05:32;15.50;99.90
59128;DHT22;44912;52.754;5.994;2022-10-17T14:08:00;15.60;99.90
59128;DHT22;44912;52.754;5.994;2022-10-17T14:10:33;15.60;99.90
59128;DHT22;44912;52.754;5.994;2022-10-17T14:13:00;15.60;99.90
59128;DHT22;44912;52.754;5.994;2022-10-17T14:15:28;15.60;99.90
59128;DHT22;44912;52.754;5.994;2022-10-17T14:18:00;15.60;99.90
59128;DHT22;44912;52.754;5.994;2022-10-17T14:20:27;15.60;99.90
59128;DHT22;44912;52.754;5.994;2022-10-17T14:22:54;15.60;99.90
59128;DHT22;44912;52.754;5.994;2022-10-17T14:30:42;15.70;99.90
59128;DHT22;44912;52.754;5.994;2022-10-17T14:33:21;15.70;99.90
59128;DHT22;44912;52.754;5.994;2022-10-17T14:35:52;15.70;99.90
59128;DHT22;44912;52.754;5.994;2022-10-17T14:38:18;15.70;99.90
59128;DHT22;44912;52.754;5.994;2022-10-17T14:40:52;15.70;99.90
59128;DHT22;44912;52.754;5.994;2022-10-17T14:43:24;15.80;99.90
59128;DHT22;44912;52.754;5.994;2022-10-17T14:45:50;15.80;99.90
59128;DHT22;44912;52.754;5.994;2022-10-17T14:48:20;15.80;99.90
59128;DHT22;44912;52.754;5.994;2022-10-17T14:51:09;15.90;99.90
59128;DHT22;44912;52.754;5.994;2022-10-17T14:53:35;15.90;99.90
59128;DHT22;44912;52.754;5.994;2022-10-17T14:56:25;16.00;99.90
59128;DHT22;44912;52.754;5.994;2022-10-17T14:58:49;16.00;99.90
59128;DHT22;44912;52.754;5.994;2022-10-17T15:01:16;16.00;99.90
59128;DHT22;44912;52.754;5.994;2022-10-17T15:03:42;16.10;99.90
59128;DHT22;44912;52.754;5.994;2022-10-17T15:06:18;16.20;99.90
59128;DHT22;44912;52.754;5.994;2022-10-17T15:08:44;16.30;99.90
59128;DHT22;44912;52.754;5.994;2022-10-17T15:11:10;16.40;99.90
59128;DHT22;44912;52.754;5.994;2022-10-17T15:13:36;16.40;99.90
59128;DHT22;44912;52.754;5.994;2022-10-17T15:16:05;16.40;99.90
59128;DHT22;44912;52.754;5.994;2022-10-17T15:18:31;16.40;99.90
59128;DHT22;44912;52.754;5.994;2022-10-17T15:20:56;16.40;99.90
59128;DHT22;44912;52.754;5.994;2022-10-17T15:23:22;16.30;99.90
59128;DHT22;44912;52.754;5.994;2022-10-17T15:25:47;16.30;99.90
59128;DHT22;44912;52.754;5.994;2022-10-17T15:28:13;16.20;99.90
59128;DHT22;44912;52.754;5.994;2022-10-17T15:30:39;16.20;99.90
59128;DHT22;44912;52.754;5.994;2022-10-17T15:33:04;16.20;99.90
59128;DHT22;44912;52.754;5.994;2022-10-17T15:35:30;16.20;99.90
59128;DHT22;44912;52.754;5.994;2022-10-17T15:37:56;16.10;99.90
59128;DHT22;44912;52.754;5.994;2022-10-17T15:40:27;16.10;99.90
59128;DHT22;44912;52.754;5.994;2022-10-17T15:42:54;16.10;99.90
59128;DHT22;44912;52.754;5.994;2022-10-17T15:45:21;16.10;99.90
59128;DHT22;44912;52.754;5.994;2022-10-17T15:47:50;16.10;99.90
59128;DHT22;44912;52.754;5.994;2022-10-17T15:50:17;16.10;99.90
59128;DHT22;44912;52.754;5.994;2022-10-17T15:52:43;16.00;99.90
59128;DHT22;44912;52.754;5.994;2022-10-17T15:55:09;16.00;99.90
59128;DHT22;44912;52.754;5.994;2022-10-17T15:57:38;16.00;99.90
59128;DHT22;44912;52.754;5.994;2022-10-17T16:00:18;15.90;99.90
59128;DHT22;44912;52.754;5.994;2022-10-17T16:02:44;15.90;99.90
59128;DHT22;44912;52.754;5.994;2022-10-17T16:05:17;15.90;99.90
59128;DHT22;44912;52.754;5.994;2022-10-17T16:07:43;15.90;99.90
59128;DHT22;44912;52.754;5.994;2022-10-17T16:10:12;15.80;99.90
59128;DHT22;44912;52.754;5.994;2022-10-17T16:12:37;15.80;99.90
59128;DHT22;44912;52.754;5.994;2022-10-17T16:15:13;15.80;99.90
59128;DHT22;44912;52.754;5.994;2022-10-17T16:17:39;15.70;99.90
59128;DHT22;44912;52.754;5.994;2022-10-17T16:20:04;15.70;99.90
59128;DHT22;44912;52.754;5.994;2022-10-17T16:22:32;15.70;99.90
59128;DHT22;44912;52.754;5.994;2022-10-17T16:25:01;15.70;99.90
59128;DHT22;44912;52.754;5.994;2022-10-17T16:27:34;15.70;99.90
59128;DHT22;44912;52.754;5.994;2022-10-17T16:30:00;15.60;99.90
59128;DHT22;44912;52.754;5.994;2022-10-17T16:32:26;15.70;99.90
59128;DHT22;44912;52.754;5.994;2022-10-17T16:34:52;15.70;99.90
59128;DHT22;44912;52.754;5.994;2022-10-17T16:37:17;15.70;99.90
59128;DHT22;44912;52.754;5.994;2022-10-17T16:39:43;15.60;99.90
59128;DHT22;44912;52.754;5.994;2022-10-17T16:42:13;15.70;99.90
59128;DHT22;44912;52.754;5.994;2022-10-17T16:44:38;15.60;99.90
59128;DHT22;44912;52.754;5.994;2022-10-17T16:47:04;15.60;99.90
59128;DHT22;44912;52.754;5.994;2022-10-17T16:49:29;15.60;99.90
59128;DHT22;44912;52.754;5.994;2022-10-17T16:51:55;15.50;99.90
59128;DHT22;44912;52.754;5.994;2022-10-17T16:54:21;15.50;99.90
59128;DHT22;44912;52.754;5.994;2022-10-17T16:56:46;15.50;99.90
59128;DHT22;44912;52.754;5.994;2022-10-17T16:59:13;15.50;99.90
59128;DHT22;44912;52.754;5.994;2022-10-17T17:01:39;15.50;99.90
59128;DHT22;44912;52.754;5.994;2022-10-17T17:04:04;15.50;99.90
59128;DHT22;44912;52.754;5.994;2022-10-17T17:06:30;15.40;99.90
59128;DHT22;44912;52.754;5.994;2022-10-17T17:08:56;15.40;99.90